Time;durP1;ratioP1;P1;durP2;ratioP2;P2;SDS_P1;SDS_P2;PMS_P1;PMS_P2;Temp;Humidity;BMP_temperature;BMP_pressure;BME280_temperature;BME280_humidity;BME280_pressure;Samples;Min_cycle;Max_cycle;Signal;HPM_P1;HPM_P2
2021/03/04 00:00:54;;;;;;;16.00;11.00;;;;;;;3.87;100.00;97254.41;5015578;28;20195;-90
2021/03/04 00:03:23;;;;;;;14.33;9.53;;;;;;;3.77;100.00;97239.34;5015585;28;20247;-90
2021/03/04 00:05:50;;;;;;;14.47;9.83;;;;;;;3.73;100.00;97239.63;5015278;28;20196;-90
2021/03/04 00:08:17;;;;;;;15.63;10.10;;;;;;;3.96;100.00;97233.88;5015577;28;20636;-90
2021/03/04 00:10:44;;;;;;;13.37;9.83;;;;;;;3.94;100.00;97235.72;5015402;28;20195;-90
2021/03/04 00:13:11;;;;;;;11.90;9.10;;;;;;;3.74;100.00;97230.91;5015189;28;20195;-91
2021/03/04 00:15:40;;;;;;;12.70;9.00;;;;;;;3.80;100.00;97228.78;5015319;28;20238;-90
2021/03/04 00:18:07;;;;;;;13.13;9.63;;;;;;;3.88;100.00;97222.25;5015093;28;20302;-91
2021/03/04 00:20:35;;;;;;;15.30;9.10;;;;;;;3.72;100.00;97219.78;5014876;28;20211;-91
2021/03/04 00:23:03;;;;;;;17.10;10.20;;;;;;;3.92;100.00;97211.59;5015211;28;20192;-91
2021/03/04 00:25:34;;;;;;;16.17;10.37;;;;;;;3.93;100.00;97215.03;5015629;28;20199;-90
2021/03/04 00:28:00;;;;;;;13.83;9.97;;;;;;;3.83;100.00;97211.31;5015464;28;20629;-91
2021/03/04 00:30:28;;;;;;;12.47;8.70;;;;;;;3.76;100.00;97196.09;5014947;28;20210;-91
2021/03/04 00:32:55;;;;;;;19.27;10.30;;;;;;;3.76;100.00;97197.84;5014897;28;20203;-91
2021/03/04 00:35:23;;;;;;;13.90;10.00;;;;;;;3.50;100.00;97187.28;5014873;28;20691;-91
2021/03/04 00:37:51;;;;;;;15.67;10.90;;;;;;;3.13;100.00;97160.06;5014791;28;20226;-90
2021/03/04 00:40:20;;;;;;;19.27;11.47;;;;;;;2.99;100.00;97153.06;5014889;28;20195;-90
2021/03/04 00:42:47;;;;;;;18.80;10.17;;;;;;;2.88;100.00;97131.28;5014698;28;20198;-91
2021/03/04 00:45:17;;;;;;;15.20;10.70;;;;;;;2.91;100.00;97118.94;5014636;28;20673;-90
2021/03/04 00:47:44;;;;;;;15.13;10.07;;;;;;;3.25;100.00;97116.91;5014814;28;20315;-90
2021/03/04 00:50:12;;;;;;;14.37;9.83;;;;;;;3.03;100.00;97123.41;5014524;28;20234;-89
2021/03/04 00:52:39;;;;;;;15.70;10.33;;;;;;;2.92;100.00;97105.03;5014640;28;20229;-90
2021/03/04 00:55:08;;;;;;;16.23;10.37;;;;;;;2.95;100.00;97093.63;5014697;28;20664;-91
2021/03/04 00:57:35;;;;;;;15.03;10.33;;;;;;;3.32;100.00;97103.44;5014167;28;20223;-90
2021/03/04 01:00:02;;;;;;;12.03;9.73;;;;;;;3.41;100.00;97116.81;5014609;28;20203;-90
2021/03/04 01:02:29;;;;;;;15.30;10.90;;;;;;;3.44;100.00;97108.84;5014412;28;20199;-89
2021/03/04 01:04:56;;;;;;;16.00;10.47;;;;;;;3.31;100.00;97111.34;5014204;28;20695;-89
2021/03/04 01:07:23;;;;;;;14.73;10.47;;;;;;;3.19;100.00;97105.16;5014211;28;20195;-90
2021/03/04 01:09:50;;;;;;;15.13;10.00;;;;;;;2.94;100.00;97081.56;5014580;28;20195;-91
2021/03/04 01:12:17;;;;;;;15.47;10.63;;;;;;;3.07;100.00;97066.91;5014094;28;20195;-90
2021/03/04 01:14:44;;;;;;;15.07;10.50;;;;;;;3.01;100.00;97060.34;5014486;28;20255;-91
2021/03/04 01:17:13;;;;;;;13.67;9.80;;;;;;;3.25;100.00;97049.38;5014190;28;20210;-91
2021/03/04 01:19:40;;;;;;;14.47;9.53;;;;;;;3.33;100.00;97086.13;5014157;28;20207;-90
2021/03/04 01:22:07;;;;;;;14.37;9.77;;;;;;;2.94;100.00;97086.75;5014384;28;20249;-90
2021/03/04 01:24:34;;;;;;;13.23;8.67;;;;;;;2.84;100.00;97053.56;5014319;28;20195;-90
2021/03/04 01:27:01;;;;;;;13.37;10.23;;;;;;;3.15;100.00;97036.09;5013770;28;20249;-90
2021/03/04 01:29:29;;;;;;;13.97;9.47;;;;;;;3.30;100.00;97052.53;5014748;28;20200;-90
2021/03/04 01:31:56;;;;;;;14.27;9.67;;;;;;;3.27;100.00;97068.31;5014337;28;20199;-90
2021/03/04 01:34:22;;;;;;;15.40;10.80;;;;;;;2.72;100.00;97064.66;5013750;28;20743;-90
2021/03/04 01:36:49;;;;;;;16.37;10.20;;;;;;;2.67;100.00;97058.06;5014491;28;20237;-91
2021/03/04 01:39:16;;;;;;;15.27;10.57;;;;;;;2.75;100.00;97037.69;5013652;28;20314;-90
2021/03/04 01:41:43;;;;;;;17.63;11.03;;;;;;;3.02;100.00;97049.03;5013913;28;20676;-90
2021/03/04 01:44:10;;;;;;;15.53;10.63;;;;;;;3.19;100.00;97060.16;5013603;28;20200;-90
2021/03/04 01:46:37;;;;;;;15.83;10.67;;;;;;;3.16;100.00;97055.16;5013634;28;20322;-90
2021/03/04 01:49:04;;;;;;;13.57;9.33;;;;;;;3.00;100.00;97050.84;5013936;28;20679;-90
2021/03/04 01:51:31;;;;;;;13.93;9.43;;;;;;;3.06;100.00;97045.31;5013762;28;20265;-91
2021/03/04 01:53:58;;;;;;;12.83;9.37;;;;;;;2.95;100.00;97042.53;5013710;28;20278;-90
2021/03/04 01:56:25;;;;;;;12.80;9.77;;;;;;;3.18;100.00;97038.50;5013780;28;20290;-91
2021/03/04 01:58:52;;;;;;;13.73;9.57;;;;;;;3.16;100.00;97055.97;5013752;28;20605;-90
2021/03/04 02:01:19;;;;;;;14.67;10.13;;;;;;;3.18;100.00;97058.47;5013462;28;20206;-91
2021/03/04 02:03:46;;;;;;;14.20;9.87;;;;;;;3.08;100.00;97053.84;5013621;28;20202;-90
2021/03/04 02:06:16;;;;;;;14.17;9.37;;;;;;;3.12;100.00;97033.72;5013386;28;20286;-91
2021/03/04 02:08:49;;;;;;;14.70;9.80;;;;;;;3.10;100.00;97015.59;5013307;28;20200;-91
2021/03/04 02:11:20;;;;;;;12.30;10.00;;;;;;;3.08;100.00;97017.50;5013136;28;20590;-90
2021/03/04 02:13:51;;;;;;;12.77;9.03;;;;;;;3.16;100.00;97013.59;5013554;28;20215;-91
2021/03/04 02:16:23;;;;;;;13.03;9.47;;;;;;;2.83;100.00;97027.69;5013900;28;20698;-91
2021/03/04 02:18:54;;;;;;;14.83;9.40;;;;;;;2.98;100.00;96999.94;5013540;28;20229;-91
2021/03/04 02:21:34;;;;;;;14.37;10.53;;;;;;;3.08;100.00;97003.63;5013620;28;20233;-92
2021/03/04 02:24:39;;;;;;;14.37;10.13;;;;;;;3.07;100.00;97005.41;5013539;28;20191;-91
2021/03/04 02:27:09;;;;;;;17.57;9.87;;;;;;;3.11;100.00;97006.06;5004715;28;20237;-92
2021/03/04 02:29:44;;;;;;;12.93;9.27;;;;;;;3.19;100.00;96998.63;5013070;28;20237;-91
2021/03/04 02:32:11;;;;;;;15.40;10.53;;;;;;;3.19;100.00;96992.63;5013136;28;20278;-92
2021/03/04 02:34:45;;;;;;;12.20;8.57;;;;;;;3.08;100.00;96991.50;5013422;28;20611;-91
2021/03/04 02:37:16;;;;;;;15.37;9.93;;;;;;;2.92;100.00;96989.94;5013039;28;20242;-91
2021/03/04 02:39:46;;;;;;;16.60;10.13;;;;;;;2.73;100.00;96970.28;5013343;28;20191;-90
2021/03/04 02:42:17;;;;;;;20.40;10.40;;;;;;;2.81;100.00;96956.84;5013154;28;20203;-92
2021/03/04 02:44:45;;;;;;;16.57;10.77;;;;;;;2.99;100.00;96958.31;5013385;28;20183;-91
2021/03/04 02:47:12;;;;;;;14.27;10.00;;;;;;;2.84;100.00;96947.13;5012972;28;20313;-92
2021/03/04 02:49:39;;;;;;;13.13;9.50;;;;;;;2.88;100.00;96952.97;5012908;28;20341;-91
2021/03/04 02:52:07;;;;;;;13.50;10.00;;;;;;;2.86;100.00;96958.22;5012770;28;20199;-91
2021/03/04 02:54:34;;;;;;;15.13;9.60;;;;;;;2.51;100.00;96951.75;5012750;28;20290;-91
2021/03/04 02:57:03;;;;;;;17.47;10.20;;;;;;;2.42;100.00;96929.78;5013570;28;20199;-92
2021/03/04 02:59:32;;;;;;;14.10;10.37;;;;;;;2.47;100.00;96917.38;5012669;28;20219;-91
2021/03/04 03:02:01;;;;;;;16.37;10.10;;;;;;;2.44;100.00;96914.97;5012274;28;20216;-92
2021/03/04 03:04:29;;;;;;;20.13;10.90;;;;;;;2.48;100.00;96913.00;5012658;28;20665;-92
2021/03/04 03:06:57;;;;;;;15.87;11.27;;;;;;;2.73;100.00;96927.91;5012878;28;20199;-90
2021/03/04 03:09:24;;;;;;;13.40;10.23;;;;;;;2.78;100.00;96936.28;5012956;28;20198;-92
2021/03/04 03:11:52;;;;;;;15.93;10.73;;;;;;;2.69;100.00;96903.91;5012794;28;20199;-92
2021/03/04 03:14:20;;;;;;;15.93;10.63;;;;;;;2.84;100.00;96881.34;5012791;28;20200;-90
2021/03/04 03:16:47;;;;;;;17.87;11.20;;;;;;;2.77;100.00;96900.84;5012830;28;20310;-91
2021/03/04 03:19:14;;;;;;;21.20;12.13;;;;;;;2.70;100.00;96922.91;5012534;28;20219;-91
2021/03/04 03:21:41;;;;;;;25.57;13.57;;;;;;;2.55;100.00;96925.50;5014081;28;20337;-93
2021/03/04 03:24:09;;;;;;;18.97;11.60;;;;;;;2.72;100.00;96931.44;5016252;28;20209;-91
2021/03/04 03:26:36;;;;;;;17.23;11.87;;;;;;;2.55;100.00;96935.06;5016220;28;20191;-91
2021/03/04 03:29:04;;;;;;;16.23;9.97;;;;;;;2.54;100.00;96920.44;5016154;28;20199;-92
2021/03/04 03:31:33;;;;;;;15.40;10.70;;;;;;;2.39;100.00;96909.22;5016200;28;20586;-90
2021/03/04 03:34:02;;;;;;;21.27;10.33;;;;;;;2.12;100.00;96894.38;5016026;28;20231;-91
2021/03/04 03:36:30;;;;;;;17.23;11.03;;;;;;;1.90;100.00;96853.34;5016261;28;20234;-90
2021/03/04 03:38:59;;;;;;;18.20;11.27;;;;;;;1.75;100.00;96811.94;5015891;28;20802;-91
2021/03/04 03:41:26;;;;;;;17.33;11.00;;;;;;;1.75;100.00;96781.69;5016016;28;20203;-91
2021/03/04 03:43:54;;;;;;;18.93;12.43;;;;;;;1.88;100.00;96753.28;5016571;28;20258;-90
2021/03/04 03:46:22;;;;;;;21.23;11.30;;;;;;;2.07;100.00;96730.47;5015963;28;20235;-90
2021/03/04 03:48:50;;;;;;;17.30;11.93;;;;;;;2.24;100.00;96752.75;5015650;28;20203;-90
2021/03/04 03:51:18;;;;;;;19.03;11.27;;;;;;;2.18;100.00;96775.63;5015848;28;20289;-90
2021/03/04 03:53:46;;;;;;;15.70;11.30;;;;;;;2.24;100.00;96778.69;5016156;28;20203;-89
2021/03/04 03:56:14;;;;;;;17.07;11.03;;;;;;;2.18;100.00;96762.66;5015549;28;20231;-91
2021/03/04 03:58:42;;;;;;;19.83;14.97;;;;;;;2.37;100.00;96739.84;5015513;28;20262;-91
2021/03/04 04:01:09;;;;;;;22.40;15.03;;;;;;;2.50;100.00;96730.38;5015827;28;20247;-90
2021/03/04 04:03:36;;;;;;;18.80;11.97;;;;;;;2.28;100.00;96732.63;5015460;28;20196;-89
2021/03/04 04:06:05;;;;;;;20.73;12.13;;;;;;;2.22;100.00;96784.88;5017236;28;20202;-87
2021/03/04 04:08:34;;;;;;;31.37;18.43;;;;;;;2.17;100.00;96787.78;5015754;28;20282;-87
2021/03/04 04:11:00;;;;;;;21.20;13.60;;;;;;;2.10;100.00;96758.78;5015731;28;20227;-88
2021/03/04 04:13:27;;;;;;;28.27;18.87;;;;;;;2.16;100.00;96731.66;5015750;28;20191;-89
2021/03/04 04:15:54;;;;;;;21.50;13.87;;;;;;;2.29;100.00;96711.00;5015359;28;20299;-89
2021/03/04 04:18:21;;;;;;;15.87;11.97;;;;;;;2.15;100.00;96735.19;5015430;28;20264;-93
2021/03/04 04:20:58;;;;;;;20.23;12.30;;;;;;;1.97;100.00;96742.31;5031858;28;20218;-93
2021/03/04 04:23:25;;;;;;;65.47;36.83;;;;;;;1.88;100.00;96735.94;5017083;28;20673;-90
2021/03/04 04:25:54;;;;;;;53.30;30.73;;;;;;;1.83;100.00;96734.56;5015237;28;20249;-90
2021/03/04 04:28:22;;;;;;;39.43;23.67;;;;;;;1.67;100.00;96730.31;5015144;28;20207;-88
2021/03/04 04:30:48;;;;;;;29.20;17.83;;;;;;;1.57;100.00;96708.47;5014944;28;20465;-94
2021/03/04 04:33:15;;;;;;;41.83;25.20;;;;;;;1.87;100.00;96687.63;5013951;28;20356;-95
2021/03/04 04:35:43;;;;;;;48.47;24.43;;;;;;;1.91;100.00;96672.72;5015076;28;20273;-94
2021/03/04 04:38:10;;;;;;;31.40;20.93;;;;;;;1.99;100.00;96692.97;5014822;28;20227;-94
2021/03/04 04:40:36;;;;;;;27.23;16.63;;;;;;;2.08;100.00;96729.56;5014712;28;20202;-92
2021/03/04 04:43:04;;;;;;;25.63;16.10;;;;;;;2.11;100.00;96737.13;5015099;28;20246;-94
2021/03/04 04:45:31;;;;;;;21.50;13.43;;;;;;;2.05;100.00;96739.28;5014293;28;20830;-94
2021/03/04 04:47:58;;;;;;;20.27;12.10;;;;;;;1.97;100.00;96744.91;5014883;28;20196;-94
2021/03/04 04:50:25;;;;;;;18.43;13.23;;;;;;;1.83;100.00;96682.72;5020179;28;20210;-86
2021/03/04 04:52:51;;;;;;;26.87;15.73;;;;;;;1.57;100.00;96667.03;5014122;28;20211;-87
2021/03/04 04:55:18;;;;;;;57.43;38.23;;;;;;;1.59;100.00;96592.63;5014454;28;20588;-88
2021/03/04 04:57:45;;;;;;;52.43;35.63;;;;;;;1.55;100.00;96570.41;5014124;28;20227;-93
2021/03/04 05:00:14;;;;;;;40.23;25.50;;;;;;;1.74;100.00;96558.91;5014260;28;20199;-93
2021/03/04 05:02:40;;;;;;;36.87;25.53;;;;;;;1.77;100.00;96585.47;5014327;28;20199;-92
2021/03/04 05:05:09;;;;;;;34.60;24.57;;;;;;;1.86;100.00;96587.47;5014321;28;20269;-91
2021/03/04 05:07:36;;;;;;;28.67;18.07;;;;;;;1.82;100.00;96587.75;5014224;28;20286;-93
2021/03/04 05:10:04;;;;;;;41.80;25.43;;;;;;;1.78;100.00;96607.03;5014238;28;20668;-92
2021/03/04 05:12:31;;;;;;;30.63;18.67;;;;;;;1.94;100.00;96601.69;5014247;28;20199;-92
2021/03/04 05:14:58;;;;;;;25.50;17.27;;;;;;;1.96;100.00;96611.03;5014401;28;20206;-92
2021/03/04 05:17:26;;;;;;;24.20;15.83;;;;;;;1.75;100.00;96599.44;5014288;28;20192;-92
2021/03/04 05:19:53;;;;;;;24.27;16.47;;;;;;;1.73;100.00;96577.97;5014049;28;20199;-93
2021/03/04 05:22:20;;;;;;;24.27;17.43;;;;;;;1.88;100.00;96585.63;5014486;28;20655;-93
2021/03/04 05:24:46;;;;;;;28.37;22.30;;;;;;;1.74;100.00;96571.88;5014257;28;20234;-92
2021/03/04 05:27:13;;;;;;;25.97;18.17;;;;;;;1.70;100.00;96550.50;5014252;28;20199;-93
2021/03/04 05:29:40;;;;;;;26.93;17.53;;;;;;;1.72;100.00;96534.84;5014033;28;20196;-92
2021/03/04 05:32:08;;;;;;;28.10;16.60;;;;;;;1.88;100.00;96551.91;5014097;28;20234;-92
2021/03/04 05:34:36;;;;;;;24.10;15.90;;;;;;;1.95;100.00;96572.28;5014875;28;20212;-92
2021/03/04 05:37:03;;;;;;;21.73;15.20;;;;;;;1.77;100.00;96556.13;5014610;28;20243;-93
2021/03/04 05:39:30;;;;;;;20.63;15.80;;;;;;;1.84;100.00;96545.28;5014771;28;20223;-94
2021/03/04 05:41:58;;;;;;;22.00;16.07;;;;;;;2.10;100.00;96556.53;5015366;28;20233;-93
2021/03/04 05:44:27;;;;;;;25.83;17.00;;;;;;;2.02;100.00;96568.34;5015834;28;20191;-93
2021/03/04 05:46:54;;;;;;;27.63;18.47;;;;;;;2.08;100.00;96555.84;5014352;28;20231;-94
2021/03/04 05:49:24;;;;;;;31.57;21.43;;;;;;;2.13;100.00;96555.53;5015367;28;20198;-95
2021/03/04 05:51:56;;;;;;;40.30;25.67;;;;;;;2.20;100.00;96553.38;5015682;28;20203;-93
2021/03/04 05:54:26;;;;;;;41.83;26.30;;;;;;;2.16;100.00;96552.72;5016736;28;20245;-93
2021/03/04 05:56:53;;;;;;;32.33;25.50;;;;;;;2.04;100.00;96541.38;5014897;28;20211;-92
2021/03/04 05:59:21;;;;;;;40.57;25.23;;;;;;;2.05;100.00;96532.69;5014282;28;20315;-91
2021/03/04 06:01:48;;;;;;;34.27;24.57;;;;;;;2.01;100.00;96513.09;5014061;28;20203;-91
2021/03/04 06:04:15;;;;;;;34.93;23.83;;;;;;;2.19;100.00;96492.91;5013698;28;20207;-91
2021/03/04 06:06:42;;;;;;;32.47;20.57;;;;;;;2.35;100.00;96479.72;5013872;28;20644;-90
2021/03/04 06:09:10;;;;;;;35.03;20.07;;;;;;;2.45;100.00;96487.72;5013873;28;20211;-89
2021/03/04 06:11:37;;;;;;;35.33;21.27;;;;;;;2.52;100.00;96507.13;5013504;28;20230;-89
2021/03/04 06:14:05;;;;;;;35.27;22.80;;;;;;;2.50;100.00;96507.25;5013352;28;20203;-89
2021/03/04 06:16:32;;;;;;;38.07;23.90;;;;;;;2.64;100.00;96505.47;5013115;28;20252;-89
2021/03/04 06:18:59;;;;;;;29.87;22.27;;;;;;;2.80;100.00;96524.25;5013055;28;20403;-88
2021/03/04 06:21:27;;;;;;;33.73;21.97;;;;;;;2.85;100.00;96528.22;5013447;28;20354;-87
2021/03/04 06:23:55;;;;;;;31.87;21.37;;;;;;;3.01;100.00;96540.13;5013196;28;20614;-88
2021/03/04 06:26:36;;;;;;;29.00;20.73;;;;;;;3.10;100.00;96568.06;5012924;28;20207;-89
2021/03/04 06:29:17;;;;;;;31.10;20.63;;;;;;;3.21;100.00;96581.16;5012972;28;20241;-89
2021/03/04 06:31:45;;;;;;;35.27;22.33;;;;;;;3.50;100.00;96581.75;5013264;28;20629;-89
2021/03/04 06:34:19;;;;;;;31.03;21.87;;;;;;;3.63;100.00;96589.47;5013184;28;20227;-89
2021/03/04 06:36:53;;;;;;;36.87;23.00;;;;;;;3.72;100.00;96549.03;5012869;28;20195;-90
2021/03/04 06:39:20;;;;;;;32.40;22.20;;;;;;;3.93;100.00;96487.66;5012890;28;20321;-89
2021/03/04 06:41:59;;;;;;;36.30;24.87;;;;;;;4.18;100.00;96415.63;5013066;28;20246;-89
2021/03/04 06:44:25;;;;;;;33.60;18.93;;;;;;;4.37;100.00;96363.84;5012886;28;20194;-90
2021/03/04 06:46:52;;;;;;;28.57;18.03;;;;;;;4.67;100.00;96352.00;5012809;28;20238;-90
2021/03/04 06:49:19;;;;;;;33.13;21.33;;;;;;;4.81;100.00;96366.53;5012374;28;20664;-93
2021/03/04 06:51:46;;;;;;;28.77;17.23;;;;;;;4.92;100.00;96390.81;5013016;28;20294;-90
2021/03/04 06:54:23;;;;;;;29.93;17.27;;;;;;;5.14;100.00;96426.41;5012775;28;20191;-90
2021/03/04 06:56:51;;;;;;;30.50;17.07;;;;;;;5.15;100.00;96463.69;5014776;28;20278;-91
2021/03/04 06:59:18;;;;;;;27.97;17.90;;;;;;;5.25;100.00;96457.63;5016613;28;20273;-91
2021/03/04 07:01:45;;;;;;;27.27;18.90;;;;;;;5.44;100.00;96472.66;5016963;28;20199;-91
2021/03/04 07:04:16;;;;;;;28.60;17.40;;;;;;;5.30;100.00;96472.09;5016606;28;20211;-90
2021/03/04 07:06:46;;;;;;;26.47;16.00;;;;;;;5.37;100.00;96458.47;5018062;28;20202;-91
2021/03/04 07:09:14;;;;;;;27.00;17.70;;;;;;;5.53;100.00;96468.50;5016491;28;20190;-92
2021/03/04 07:11:44;;;;;;;27.40;17.83;;;;;;;5.79;100.00;96494.28;5016409;28;20199;-91
2021/03/04 07:14:13;;;;;;;25.83;16.30;;;;;;;6.12;100.00;96548.13;5016693;28;20698;-92
2021/03/04 07:16:44;;;;;;;24.57;16.00;;;;;;;6.56;100.00;96619.41;5016764;28;20676;-91
2021/03/04 07:19:12;;;;;;;30.80;18.37;;;;;;;6.94;100.00;96675.53;5016297;28;20212;-92
2021/03/04 07:21:40;;;;;;;26.70;17.87;;;;;;;6.70;100.00;96692.25;5016639;28;20203;-92
2021/03/04 07:24:08;;;;;;;31.03;19.40;;;;;;;7.30;100.00;96710.84;5016222;28;20203;-91
2021/03/04 07:26:37;;;;;;;24.93;16.17;;;;;;;7.68;100.00;96759.16;5016203;28;20661;-91
2021/03/04 07:29:05;;;;;;;26.50;16.40;;;;;;;7.61;100.00;96775.34;5016178;28;20242;-92
2021/03/04 07:31:33;;;;;;;25.10;16.50;;;;;;;7.78;100.00;96783.59;5016175;28;20230;-92
2021/03/04 07:34:01;;;;;;;27.00;17.83;;;;;;;7.68;100.00;96796.59;5016123;28;20200;-92
2021/03/04 07:36:29;;;;;;;25.20;16.33;;;;;;;8.08;100.00;96808.97;5016043;28;20253;-92
2021/03/04 07:38:57;;;;;;;25.73;15.30;;;;;;;7.92;100.00;96824.31;5016232;28;20373;-92
2021/03/04 07:41:36;;;;;;;28.00;15.53;;;;;;;8.18;100.00;96845.69;5016296;28;20204;-92
2021/03/04 07:44:04;;;;;;;23.87;15.60;;;;;;;8.19;100.00;96861.25;5016196;28;20187;-92
2021/03/04 07:46:34;;;;;;;22.47;15.37;;;;;;;8.54;100.00;96886.28;5015808;28;20237;-92
2021/03/04 07:49:03;;;;;;;22.23;15.07;;;;;;;8.47;100.00;96896.44;5016136;28;20184;-92
2021/03/04 07:51:41;;;;;;;26.73;16.00;;;;;;;8.61;100.00;96879.56;5015748;28;20289;-92
2021/03/04 07:54:08;;;;;;;24.47;15.53;;;;;;;8.86;100.00;96894.00;5015879;28;20192;-92
2021/03/04 07:56:35;;;;;;;27.93;15.80;;;;;;;8.69;100.00;96884.97;5016582;28;20199;-92
2021/03/04 07:59:11;;;;;;;24.27;15.60;;;;;;;9.30;100.00;96891.91;5015582;28;20310;-92
2021/03/04 08:01:40;;;;;;;24.97;15.37;;;;;;;9.38;100.00;96922.72;5015792;28;20199;-92
2021/03/04 08:04:06;;;;;;;24.10;15.00;;;;;;;10.02;100.00;96931.91;5015514;28;20195;-93
2021/03/04 08:06:44;;;;;;;23.40;15.40;;;;;;;10.40;100.00;96939.78;5015639;28;20227;-92
2021/03/04 08:09:11;;;;;;;23.40;15.07;;;;;;;10.30;100.00;96943.38;5014535;28;20676;-93
2021/03/04 08:11:39;;;;;;;24.00;15.20;;;;;;;10.21;100.00;96940.59;5015407;28;20238;-92
2021/03/04 08:14:15;;;;;;;21.20;14.00;;;;;;;10.20;100.00;96931.06;5015315;28;20195;-92
2021/03/04 08:16:43;;;;;;;22.90;14.63;;;;;;;10.62;100.00;96943.88;5015238;28;20187;-92
2021/03/04 08:19:10;;;;;;;21.73;15.23;;;;;;;10.74;100.00;96955.06;5015161;28;20318;-95
2021/03/04 08:21:41;;;;;;;21.70;14.60;;;;;;;10.95;100.00;96944.34;5015159;28;20282;-93
2021/03/04 08:24:13;;;;;;;18.40;13.73;;;;;;;10.84;100.00;96941.88;5015171;28;20188;-93
2021/03/04 08:26:40;;;;;;;17.97;12.77;;;;;;;10.61;100.00;96952.72;5015275;28;20215;-91
2021/03/04 08:29:08;;;;;;;18.43;13.17;;;;;;;10.70;100.00;96959.78;5015013;28;20661;-92
2021/03/04 08:31:35;;;;;;;20.63;13.67;;;;;;;11.18;100.00;96958.75;5015044;28;20744;-93
2021/03/04 08:34:03;;;;;;;20.97;14.37;;;;;;;11.72;100.00;96948.34;5015322;28;20199;-94
2021/03/04 08:36:41;;;;;;;17.77;13.00;;;;;;;11.90;100.00;96956.31;5014866;28;20261;-93
2021/03/04 08:39:08;;;;;;;24.20;14.57;;;;;;;11.80;100.00;96966.88;5014862;28;20700;-93
2021/03/04 08:41:35;;;;;;;24.50;16.27;;;;;;;12.01;100.00;96948.16;5015014;28;20209;-94
2021/03/04 08:44:12;;;;;;;25.67;16.77;;;;;;;12.05;100.00;96951.31;5015052;28;20203;-93
2021/03/04 08:46:41;;;;;;;22.17;15.30;;;;;;;12.34;100.00;96954.56;5014628;28;20727;-93
2021/03/04 08:49:09;;;;;;;26.23;15.90;;;;;;;12.30;100.00;96949.75;5014659;28;20199;-93
2021/03/04 08:51:44;;;;;;;22.10;15.70;;;;;;;13.01;100.00;96957.47;5014545;28;20207;-93
2021/03/04 08:54:21;;;;;;;22.10;15.10;;;;;;;12.99;100.00;96958.59;5014580;28;20276;-93
2021/03/04 08:56:58;;;;;;;19.90;15.47;;;;;;;12.79;100.00;96955.38;5014937;28;20741;-93
2021/03/04 08:59:26;;;;;;;27.10;17.20;;;;;;;12.69;100.00;96944.09;5014661;28;20298;-94
2021/03/04 09:01:53;;;;;;;26.17;15.57;;;;;;;12.53;100.00;96942.16;5014661;28;20196;-93
2021/03/04 09:04:22;;;;;;;24.90;16.33;;;;;;;12.41;100.00;96936.31;5014682;28;20203;-94
2021/03/04 09:06:49;;;;;;;27.03;17.47;;;;;;;12.77;100.00;96928.31;5014774;28;20626;-94
2021/03/04 09:09:24;;;;;;;23.50;15.47;;;;;;;13.08;100.00;96937.38;5014822;28;20285;-93
2021/03/04 09:11:51;;;;;;;23.90;16.40;;;;;;;12.79;100.00;96931.63;5015666;28;20664;-93
2021/03/04 09:14:25;;;;;;;22.43;15.40;;;;;;;12.90;100.00;96923.44;5014419;28;20210;-94
2021/03/04 09:16:52;;;;;;;29.77;16.67;;;;;;;13.48;100.00;96928.00;5014966;28;20192;-93
2021/03/04 09:19:27;;;;;;;25.23;16.00;;;;;;;13.25;100.00;96933.03;5014052;28;20231;-93
2021/03/04 09:21:56;;;;;;;25.80;17.10;;;;;;;13.77;100.00;96913.53;5015560;28;20667;-93
2021/03/04 09:24:23;;;;;;;25.00;16.53;;;;;;;13.76;100.00;96917.19;5014872;28;20196;-93
2021/03/04 09:26:50;;;;;;;26.37;17.77;;;;;;;13.29;100.00;96915.88;5014638;28;20214;-94
2021/03/04 09:29:18;;;;;;;29.47;19.07;;;;;;;14.20;100.00;96901.84;5014385;28;20701;-93
2021/03/04 09:31:53;;;;;;;25.53;17.20;;;;;;;13.97;100.00;96912.25;5014933;28;20270;-93
2021/03/04 09:34:32;;;;;;;28.47;18.53;;;;;;;13.91;100.00;96904.97;5014474;28;20206;-93
2021/03/04 09:37:11;;;;;;;26.10;17.37;;;;;;;13.84;100.00;96906.63;5014535;28;20191;-94
2021/03/04 09:39:44;;;;;;;29.90;19.83;;;;;;;14.24;100.00;96902.34;5015193;28;20717;-94
2021/03/04 09:42:12;;;;;;;25.00;18.40;;;;;;;14.71;100.00;96905.13;5014698;28;20282;-93
2021/03/04 09:44:51;;;;;;;33.40;20.33;;;;;;;15.53;100.00;96906.66;5014981;28;20195;-94
2021/03/04 09:47:19;;;;;;;29.33;20.37;;;;;;;15.40;100.00;96904.53;5015191;28;20231;-93
2021/03/04 09:49:47;;;;;;;38.83;24.40;;;;;;;15.43;100.00;96894.44;5014578;28;20201;-94
2021/03/04 09:52:21;;;;;;;28.70;20.47;;;;;;;14.59;100.00;96900.38;5014314;28;20710;-94
2021/03/04 09:54:48;;;;;;;26.30;20.33;;;;;;;14.85;100.00;96902.78;5014048;28;20724;-93
2021/03/04 09:57:19;;;;;;;25.47;18.47;;;;;;;14.34;100.00;96896.88;5013901;28;20261;-94
2021/03/04 09:59:50;;;;;;;28.40;20.17;;;;;;;14.67;100.00;96890.56;5013792;28;20650;-92
2021/03/04 10:02:18;;;;;;;32.07;19.57;;;;;;;15.29;100.00;96889.06;5013860;28;20690;-93
2021/03/04 10:04:57;;;;;;;33.07;20.60;;;;;;;15.38;100.00;96885.38;5013967;28;20196;-94
2021/03/04 10:07:25;;;;;;;31.47;19.87;;;;;;;16.20;100.00;96884.84;5013491;28;20196;-93
2021/03/04 10:09:52;;;;;;;28.43;19.37;;;;;;;15.53;100.00;96890.75;5013667;28;20200;-93
2021/03/04 10:12:19;;;;;;;30.83;20.37;;;;;;;15.14;100.00;96884.47;5013530;28;20199;-93
2021/03/04 10:14:48;;;;;;;31.80;18.40;;;;;;;15.23;100.00;96880.78;5013198;28;20234;-95
2021/03/04 10:17:15;;;;;;;28.90;20.80;;;;;;;15.78;100.00;96870.25;5013229;28;20664;-93
2021/03/04 10:19:44;;;;;;;35.20;21.83;;;;;;;16.03;100.00;96868.22;5013093;28;20223;-93
2021/03/04 10:22:12;;;;;;;30.63;19.27;;;;;;;16.19;100.00;96869.94;5013466;28;20285;-93
2021/03/04 10:24:39;;;;;;;31.73;20.37;;;;;;;15.59;100.00;96872.34;5013250;28;20195;-94
2021/03/04 10:27:07;;;;;;;29.57;19.17;;;;;;;15.40;100.00;96859.53;5013364;28;20586;-93
2021/03/04 10:29:35;;;;;;;30.03;18.67;;;;;;;15.30;100.00;96866.84;5013438;28;20238;-93
2021/03/04 10:32:02;;;;;;;30.17;21.00;;;;;;;15.86;100.00;96856.91;5012591;28;20583;-93
2021/03/04 10:34:29;;;;;;;26.67;18.67;;;;;;;15.75;100.00;96857.34;5013286;28;20587;-92
2021/03/04 10:36:56;;;;;;;30.57;18.77;;;;;;;15.48;100.00;96846.22;5012781;28;20290;-92
2021/03/04 10:39:24;;;;;;;28.63;19.13;;;;;;;16.09;100.00;96838.34;5013445;28;20231;-92
2021/03/04 10:41:51;;;;;;;26.50;17.50;;;;;;;14.88;100.00;96852.97;5013503;28;20206;-93
2021/03/04 10:44:18;;;;;;;30.27;19.13;;;;;;;15.01;100.00;96839.19;5013042;28;20203;-93
2021/03/04 10:46:45;;;;;;;26.57;19.10;;;;;;;15.83;100.00;96836.91;5012879;28;20723;-93
2021/03/04 10:49:11;;;;;;;26.33;17.77;;;;;;;16.07;100.00;96829.75;5013012;28;20249;-94
2021/03/04 10:51:38;;;;;;;22.77;16.60;;;;;;;15.49;100.00;96837.28;5013089;28;20199;-92
2021/03/04 10:54:05;;;;;;;36.77;18.67;;;;;;;15.15;100.00;96817.28;5012837;28;20203;-93
2021/03/04 10:56:33;;;;;;;22.97;16.13;;;;;;;15.82;100.00;96826.47;5013469;28;20203;-93
2021/03/04 10:59:00;;;;;;;28.83;17.43;;;;;;;15.01;100.00;96820.66;5012880;28;20223;-92
2021/03/04 11:01:26;;;;;;;26.93;18.17;;;;;;;15.45;100.00;96801.56;5013173;28;20262;-92
2021/03/04 11:03:53;;;;;;;24.73;18.20;;;;;;;15.67;100.00;96805.22;5013064;28;20263;-93
2021/03/04 11:06:20;;;;;;;23.20;16.97;;;;;;;16.05;100.00;96805.25;5012909;28;20565;-94
2021/03/04 11:08:47;;;;;;;23.03;16.87;;;;;;;15.21;100.00;96799.88;5012732;28;20242;-94
2021/03/04 11:11:14;;;;;;;23.33;16.13;;;;;;;15.39;100.00;96803.06;5012783;28;20349;-93
2021/03/04 11:13:42;;;;;;;19.57;14.80;;;;;;;15.54;100.00;96803.13;5012577;28;20238;-92
2021/03/04 11:16:08;;;;;;;23.80;16.10;;;;;;;15.05;100.00;96792.03;5013149;28;20274;-93
2021/03/04 11:18:35;;;;;;;22.77;15.80;;;;;;;15.48;100.00;96789.75;5012653;28;20285;-93
2021/03/04 11:21:02;;;;;;;22.73;17.57;;;;;;;15.79;100.00;96779.13;5013077;28;20249;-93
2021/03/04 11:23:30;;;;;;;21.77;14.63;;;;;;;16.12;100.00;96774.34;5013064;28;20203;-94